Calgary International Airport

CYYC · 艾伯塔, 加拿大

罗盘
风向 的 风向 050° Calgary International Airport 8/26
风: 4 kt, 2 beaufort

3 kt

3 kt
改变
0 6.000 12.000 18.000 24.000 30.000
BKN 17.000 ft
OVC 30.000 ft
METAR CYYC 292300Z 05004KT 15SM BKN170 OVC300 M16/M21 A2999 RMK AC5CI3 SLP252

METAR Calgary International Airport - CYYC/YYC

Calgary International Airport是,加拿大中的大型机场。 该机场有5条跑道: 8/26, 11/29, 17L/35R, 17R/35L 和 17/35. 该领域的国际民航组织标志是CYYC 它的国际航空运输协会代码是YYC.

这份报告是针对2022年11月29日 16:00, 当地时间在Calgary International Airport进行的。

机场观察

风向为050°,速度为4 kt。

可见度为15 mi。

有碎云在17.000 ft的高度 和 乌云密布在30.000 ft的高度。 破损或更高的上限为17.000 ft。

温度为-16 °C,阵风为-24 °C。 露点为-21 °C,相对湿度为66%。 海平面上的气压为29,99 inHg (QNH)。

白天

今天,太阳从08:15升起,在16:33降落。 这适用于Calgary International Airport,世界夏令时可能有所不同。 当地时间与世界标准时间之间的时差为-7 小时。 当前,没有夏令时有效。

公司介绍

我们没有关于这个机场的公司信息。

体会

到Vliegles.nl去找飞行课程,跳伞和其他飞行体验。 浏览页面,了解Calgary International Airport附近所有可用的活动。 你也可以使用搜索功能来寻找你所在地附近的特定飞行课程、跳伞或其他飞行体验。

跑道

Id 标题 侧风 逆风 侧风 %
8/26 090°-270° 3 kt 3 kt 64 %
11/29 120°-300° 4 kt 1 kt 94 %
17L/35R 180°-360° 3 kt 3 kt 77 %
17R/35L 180°-360° 3 kt 3 kt 77 %
17/35 180°-360° 3 kt 3 kt 77 %

逆风成分最大的方向会被突出显示,并用于横风计算。 这并不一定意味着这个方向在使用。

乌云

17.000 ft BKN 碎云
30.000 ft OVC 乌云密布

温度 & 天气

温度 -16 °C
露点 -21 °C
相对湿度 66%
风寒 -24 °C
Kp-index 3 (0-9)

评论

SLP252海平面压力为30,27 inHg (30,27 inHg)
AC5CI3

白天

日出
08:15 (15:33)
中午
12:24
日落
16:33

小工具

你想在你的网站上有一个关于Calgary International Airport的当前航空天气(METAR)的小部件吗?

显示HTML代码

我们和第三方通过cookies跟踪您在我们网站上的互联网行为。如果你继续,我们认为你同意我们的饼干政策